sensor_id;sensor_type;location;lat;lon;timestamp;temperature;humidity
32428;DHT22;18882;50.952;4.366;2023-04-15T00:00:07;11.10;99.90
32428;DHT22;18882;50.952;4.366;2023-04-15T00:02:32;11.00;99.90
32428;DHT22;18882;50.952;4.366;2023-04-15T00:04:58;11.00;99.90
32428;DHT22;18882;50.952;4.366;2023-04-15T00:07:24;11.20;99.90
32428;DHT22;18882;50.952;4.366;2023-04-15T00:09:49;11.20;99.90
32428;DHT22;18882;50.952;4.366;2023-04-15T00:12:19;11.10;99.90
32428;DHT22;18882;50.952;4.366;2023-04-15T00:14:46;11.20;99.90
32428;DHT22;18882;50.952;4.366;2023-04-15T00:17:11;11.20;99.90
32428;DHT22;18882;50.952;4.366;2023-04-15T00:19:43;11.20;99.90
32428;DHT22;18882;50.952;4.366;2023-04-15T00:22:10;11.10;99.90
32428;DHT22;18882;50.952;4.366;2023-04-15T00:24:37;11.10;99.90
32428;DHT22;18882;50.952;4.366;2023-04-15T00:27:03;11.10;99.90
32428;DHT22;18882;50.952;4.366;2023-04-15T00:29:29;11.10;99.90
32428;DHT22;18882;50.952;4.366;2023-04-15T00:31:55;11.10;99.90
32428;DHT22;18882;50.952;4.366;2023-04-15T00:34:24;11.10;99.90
32428;DHT22;18882;50.952;4.366;2023-04-15T00:36:50;11.10;99.90
32428;DHT22;18882;50.952;4.366;2023-04-15T00:39:17;11.00;99.90
32428;DHT22;18882;50.952;4.366;2023-04-15T00:41:43;11.10;99.90
32428;DHT22;18882;50.952;4.366;2023-04-15T00:44:10;11.10;99.90
32428;DHT22;18882;50.952;4.366;2023-04-15T00:46:37;11.10;99.90
32428;DHT22;18882;50.952;4.366;2023-04-15T00:49:04;11.10;99.90
32428;DHT22;18882;50.952;4.366;2023-04-15T00:51:31;11.10;99.90
32428;DHT22;18882;50.952;4.366;2023-04-15T00:54:02;11.10;99.90
32428;DHT22;18882;50.952;4.366;2023-04-15T00:56:28;11.10;99.90
32428;DHT22;18882;50.952;4.366;2023-04-15T00:58:54;11.10;99.90
32428;DHT22;18882;50.952;4.366;2023-04-15T01:01:21;11.10;99.90
32428;DHT22;18882;50.952;4.366;2023-04-15T01:03:49;11.00;99.90
32428;DHT22;18882;50.952;4.366;2023-04-15T01:06:16;10.80;99.90
32428;DHT22;18882;50.952;4.366;2023-04-15T01:08:42;10.70;99.90
32428;DHT22;18882;50.952;4.366;2023-04-15T01:11:58;10.70;99.90
32428;DHT22;18882;50.952;4.366;2023-04-15T01:14:30;10.70;99.90
32428;DHT22;18882;50.952;4.366;2023-04-15T01:17:18;10.60;99.90
32428;DHT22;18882;50.952;4.366;2023-04-15T01:19:44;10.70;99.90
32428;DHT22;18882;50.952;4.366;2023-04-15T01:22:09;10.50;99.90
32428;DHT22;18882;50.952;4.366;2023-04-15T01:24:36;10.30;99.90
32428;DHT22;18882;50.952;4.366;2023-04-15T01:27:02;10.30;99.90
32428;DHT22;18882;50.952;4.366;2023-04-15T01:29:30;10.50;99.90
32428;DHT22;18882;50.952;4.366;2023-04-15T01:31:56;10.60;99.90
32428;DHT22;18882;50.952;4.366;2023-04-15T01:34:22;10.80;99.90
32428;DHT22;18882;50.952;4.366;2023-04-15T01:36:48;10.80;99.90
32428;DHT22;18882;50.952;4.366;2023-04-15T01:39:14;10.80;99.90
32428;DHT22;18882;50.952;4.366;2023-04-15T01:41:40;10.80;99.90
32428;DHT22;18882;50.952;4.366;2023-04-15T01:44:07;10.80;99.90
32428;DHT22;18882;50.952;4.366;2023-04-15T01:46:33;10.80;99.90
32428;DHT22;18882;50.952;4.366;2023-04-15T01:48:59;10.90;99.90
32428;DHT22;18882;50.952;4.366;2023-04-15T01:51:25;10.90;99.90
32428;DHT22;18882;50.952;4.366;2023-04-15T01:53:51;10.90;99.90
32428;DHT22;18882;50.952;4.366;2023-04-15T01:56:17;10.90;99.90
32428;DHT22;18882;50.952;4.366;2023-04-15T01:58:43;10.90;99.90
32428;DHT22;18882;50.952;4.366;2023-04-15T02:01:08;10.90;99.90
32428;DHT22;18882;50.952;4.366;2023-04-15T02:03:36;10.90;99.90
32428;DHT22;18882;50.952;4.366;2023-04-15T02:06:02;10.80;99.90
32428;DHT22;18882;50.952;4.366;2023-04-15T02:08:29;10.90;99.90
32428;DHT22;18882;50.952;4.366;2023-04-15T02:10:54;11.00;99.90
32428;DHT22;18882;50.952;4.366;2023-04-15T02:13:20;11.00;99.90
32428;DHT22;18882;50.952;4.366;2023-04-15T02:15:47;11.10;99.90
32428;DHT22;18882;50.952;4.366;2023-04-15T02:18:13;11.00;99.90
32428;DHT22;18882;50.952;4.366;2023-04-15T02:20:39;10.90;99.90
32428;DHT22;18882;50.952;4.366;2023-04-15T02:23:05;10.80;99.90
32428;DHT22;18882;50.952;4.366;2023-04-15T02:25:31;10.90;99.90
32428;DHT22;18882;50.952;4.366;2023-04-15T02:27:57;10.90;99.90
32428;DHT22;18882;50.952;4.366;2023-04-15T02:30:25;10.90;99.90
32428;DHT22;18882;50.952;4.366;2023-04-15T02:36:18;10.90;99.90
32428;DHT22;18882;50.952;4.366;2023-04-15T02:38:45;10.90;99.90
32428;DHT22;18882;50.952;4.366;2023-04-15T02:41:11;10.80;99.90
32428;DHT22;18882;50.952;4.366;2023-04-15T02:43:37;10.80;99.90
32428;DHT22;18882;50.952;4.366;2023-04-15T02:46:04;10.80;99.90
32428;DHT22;18882;50.952;4.366;2023-04-15T02:48:30;10.80;99.90
32428;DHT22;18882;50.952;4.366;2023-04-15T02:51:13;10.80;99.90
32428;DHT22;18882;50.952;4.366;2023-04-15T02:53:38;10.80;99.90
32428;DHT22;18882;50.952;4.366;2023-04-15T02:56:04;10.80;99.90
32428;DHT22;18882;50.952;4.366;2023-04-15T02:58:30;10.80;99.90
32428;DHT22;18882;50.952;4.366;2023-04-15T03:00:56;10.70;99.90
32428;DHT22;18882;50.952;4.366;2023-04-15T03:03:22;10.80;99.90
32428;DHT22;18882;50.952;4.366;2023-04-15T03:05:47;10.80;99.90
32428;DHT22;18882;50.952;4.366;2023-04-15T03:08:13;10.50;99.90
32428;DHT22;18882;50.952;4.366;2023-04-15T03:10:39;10.20;99.90
32428;DHT22;18882;50.952;4.366;2023-04-15T03:13:04;10.30;99.90
32428;DHT22;18882;50.952;4.366;2023-04-15T03:15:31;10.30;99.90
32428;DHT22;18882;50.952;4.366;2023-04-15T03:17:57;10.30;99.90
32428;DHT22;18882;50.952;4.366;2023-04-15T03:20:23;10.10;99.90
32428;DHT22;18882;50.952;4.366;2023-04-15T03:22:48;9.70;99.90
32428;DHT22;18882;50.952;4.366;2023-04-15T03:25:14;9.40;99.90
32428;DHT22;18882;50.952;4.366;2023-04-15T03:27:40;9.60;99.90
32428;DHT22;18882;50.952;4.366;2023-04-15T03:30:06;9.60;99.90
32428;DHT22;18882;50.952;4.366;2023-04-15T03:32:33;9.50;99.90
32428;DHT22;18882;50.952;4.366;2023-04-15T03:34:58;9.30;99.90
32428;DHT22;18882;50.952;4.366;2023-04-15T03:37:24;9.20;99.90
32428;DHT22;18882;50.952;4.366;2023-04-15T03:39:50;8.90;99.90
32428;DHT22;18882;50.952;4.366;2023-04-15T03:42:16;8.90;99.90
32428;DHT22;18882;50.952;4.366;2023-04-15T03:44:41;8.80;99.90
32428;DHT22;18882;50.952;4.366;2023-04-15T03:47:07;8.80;99.90
32428;DHT22;18882;50.952;4.366;2023-04-15T03:49:33;8.80;99.90
32428;DHT22;18882;50.952;4.366;2023-04-15T03:51:58;8.70;99.90
32428;DHT22;18882;50.952;4.366;2023-04-15T03:54:24;8.90;99.90
32428;DHT22;18882;50.952;4.366;2023-04-15T03:56:50;9.00;99.90
32428;DHT22;18882;50.952;4.366;2023-04-15T03:59:15;9.20;99.90
32428;DHT22;18882;50.952;4.366;2023-04-15T04:01:41;9.30;99.90
32428;DHT22;18882;50.952;4.366;2023-04-15T04:04:06;9.30;99.90
32428;DHT22;18882;50.952;4.366;2023-04-15T04:06:32;9.20;99.90
32428;DHT22;18882;50.952;4.366;2023-04-15T04:08:58;9.20;99.90
32428;DHT22;18882;50.952;4.366;2023-04-15T04:11:24;9.40;99.90
32428;DHT22;18882;50.952;4.366;2023-04-15T04:13:49;9.40;99.90
32428;DHT22;18882;50.952;4.366;2023-04-15T04:16:15;9.30;99.90
32428;DHT22;18882;50.952;4.366;2023-04-15T04:18:40;9.30;99.90
32428;DHT22;18882;50.952;4.366;2023-04-15T04:21:06;9.30;99.90
32428;DHT22;18882;50.952;4.366;2023-04-15T04:23:32;9.30;99.90
32428;DHT22;18882;50.952;4.366;2023-04-15T04:25:58;9.40;99.90
32428;DHT22;18882;50.952;4.366;2023-04-15T04:28:23;9.50;99.90
32428;DHT22;18882;50.952;4.366;2023-04-15T04:30:49;9.60;99.90
32428;DHT22;18882;50.952;4.366;2023-04-15T04:33:15;9.70;99.90
32428;DHT22;18882;50.952;4.366;2023-04-15T04:35:40;9.80;99.90
32428;DHT22;18882;50.952;4.366;2023-04-15T04:38:06;9.80;99.90
32428;DHT22;18882;50.952;4.366;2023-04-15T04:40:38;9.80;99.90
32428;DHT22;18882;50.952;4.366;2023-04-15T04:43:03;9.90;99.90
32428;DHT22;18882;50.952;4.366;2023-04-15T04:45:29;9.70;99.90
32428;DHT22;18882;50.952;4.366;2023-04-15T04:47:55;9.60;99.90
32428;DHT22;18882;50.952;4.366;2023-04-15T04:50:20;9.60;99.90
32428;DHT22;18882;50.952;4.366;2023-04-15T04:52:46;9.60;99.90
32428;DHT22;18882;50.952;4.366;2023-04-15T04:55:12;9.60;99.90
32428;DHT22;18882;50.952;4.366;2023-04-15T04:57:37;9.60;99.90
32428;DHT22;18882;50.952;4.366;2023-04-15T05:00:07;9.70;99.90
32428;DHT22;18882;50.952;4.366;2023-04-15T05:02:33;9.70;99.90
32428;DHT22;18882;50.952;4.366;2023-04-15T05:04:59;9.70;99.90
32428;DHT22;18882;50.952;4.366;2023-04-15T05:07:25;9.80;99.90
32428;DHT22;18882;50.952;4.366;2023-04-15T05:09:51;9.70;99.90
32428;DHT22;18882;50.952;4.366;2023-04-15T05:12:17;9.60;99.90
32428;DHT22;18882;50.952;4.366;2023-04-15T05:14:43;9.40;99.90
32428;DHT22;18882;50.952;4.366;2023-04-15T05:17:09;9.20;99.90
32428;DHT22;18882;50.952;4.366;2023-04-15T05:19:35;9.20;99.90
32428;DHT22;18882;50.952;4.366;2023-04-15T05:22:01;9.30;99.90
32428;DHT22;18882;50.952;4.366;2023-04-15T05:24:27;9.20;99.90
32428;DHT22;18882;50.952;4.366;2023-04-15T05:26:53;8.90;99.90
32428;DHT22;18882;50.952;4.366;2023-04-15T05:29:18;8.70;99.90
32428;DHT22;18882;50.952;4.366;2023-04-15T05:31:44;8.60;99.90
32428;DHT22;18882;50.952;4.366;2023-04-15T05:34:10;8.70;99.90
32428;DHT22;18882;50.952;4.366;2023-04-15T05:36:40;8.80;99.90
32428;DHT22;18882;50.952;4.366;2023-04-15T05:39:06;8.80;99.90
32428;DHT22;18882;50.952;4.366;2023-04-15T05:41:31;8.60;99.90
32428;DHT22;18882;50.952;4.366;2023-04-15T05:43:57;8.60;99.90
32428;DHT22;18882;50.952;4.366;2023-04-15T05:46:23;8.40;99.90
32428;DHT22;18882;50.952;4.366;2023-04-15T05:48:48;8.40;99.90
32428;DHT22;18882;50.952;4.366;2023-04-15T05:51:14;8.50;99.90
32428;DHT22;18882;50.952;4.366;2023-04-15T05:53:40;8.60;99.90
32428;DHT22;18882;50.952;4.366;2023-04-15T05:56:06;8.80;99.90
32428;DHT22;18882;50.952;4.366;2023-04-15T05:58:32;8.90;99.90
32428;DHT22;18882;50.952;4.366;2023-04-15T06:00:57;9.10;99.90
32428;DHT22;18882;50.952;4.366;2023-04-15T06:03:23;9.40;99.90
32428;DHT22;18882;50.952;4.366;2023-04-15T06:05:49;9.60;99.90
32428;DHT22;18882;50.952;4.366;2023-04-15T06:08:15;9.80;99.90
32428;DHT22;18882;50.952;4.366;2023-04-15T06:10:41;9.60;99.90
32428;DHT22;18882;50.952;4.366;2023-04-15T06:13:07;9.60;99.90
32428;DHT22;18882;50.952;4.366;2023-04-15T06:15:32;9.80;99.90
32428;DHT22;18882;50.952;4.366;2023-04-15T06:17:58;9.30;99.90
32428;DHT22;18882;50.952;4.366;2023-04-15T06:20:24;9.20;99.90
32428;DHT22;18882;50.952;4.366;2023-04-15T06:22:49;9.50;99.90
32428;DHT22;18882;50.952;4.366;2023-04-15T06:25:15;9.40;99.90
32428;DHT22;18882;50.952;4.366;2023-04-15T06:27:42;9.20;99.90
32428;DHT22;18882;50.952;4.366;2023-04-15T06:30:08;9.30;99.90
32428;DHT22;18882;50.952;4.366;2023-04-15T06:32:33;9.30;99.90
32428;DHT22;18882;50.952;4.366;2023-04-15T06:34:59;9.30;99.90
32428;DHT22;18882;50.952;4.366;2023-04-15T06:37:25;9.30;99.90
32428;DHT22;18882;50.952;4.366;2023-04-15T06:39:51;9.50;99.90
32428;DHT22;18882;50.952;4.366;2023-04-15T06:42:17;9.50;99.90
32428;DHT22;18882;50.952;4.366;2023-04-15T06:44:43;9.60;99.90
32428;DHT22;18882;50.952;4.366;2023-04-15T06:47:08;9.50;99.90
32428;DHT22;18882;50.952;4.366;2023-04-15T06:49:34;9.70;99.90
32428;DHT22;18882;50.952;4.366;2023-04-15T06:52:00;9.60;99.90
32428;DHT22;18882;50.952;4.366;2023-04-15T06:54:26;9.70;99.90
32428;DHT22;18882;50.952;4.366;2023-04-15T06:56:52;9.80;99.90
32428;DHT22;18882;50.952;4.366;2023-04-15T06:59:17;9.90;99.90
32428;DHT22;18882;50.952;4.366;2023-04-15T07:01:43;10.00;99.90
32428;DHT22;18882;50.952;4.366;2023-04-15T07:04:09;10.10;99.90
32428;DHT22;18882;50.952;4.366;2023-04-15T07:06:35;10.50;99.90
32428;DHT22;18882;50.952;4.366;2023-04-15T07:09:01;10.70;99.90
32428;DHT22;18882;50.952;4.366;2023-04-15T07:11:27;10.60;99.90
32428;DHT22;18882;50.952;4.366;2023-04-15T07:13:53;10.70;99.90
32428;DHT22;18882;50.952;4.366;2023-04-15T07:16:19;10.50;99.90
32428;DHT22;18882;50.952;4.366;2023-04-15T07:18:44;10.30;99.90
32428;DHT22;18882;50.952;4.366;2023-04-15T07:21:10;10.20;99.90
32428;DHT22;18882;50.952;4.366;2023-04-15T07:23:36;10.30;99.90
32428;DHT22;18882;50.952;4.366;2023-04-15T07:26:02;10.20;99.90
32428;DHT22;18882;50.952;4.366;2023-04-15T07:28:28;10.30;99.90
32428;DHT22;18882;50.952;4.366;2023-04-15T07:30:54;10.30;99.90
32428;DHT22;18882;50.952;4.366;2023-04-15T07:33:22;10.30;99.90
32428;DHT22;18882;50.952;4.366;2023-04-15T07:35:48;10.40;99.90
32428;DHT22;18882;50.952;4.366;2023-04-15T07:38:13;10.40;99.90
32428;DHT22;18882;50.952;4.366;2023-04-15T07:40:39;10.30;99.90
32428;DHT22;18882;50.952;4.366;2023-04-15T07:43:05;10.30;99.90
32428;DHT22;18882;50.952;4.366;2023-04-15T07:45:31;10.20;99.90
32428;DHT22;18882;50.952;4.366;2023-04-15T07:47:57;10.30;99.90
32428;DHT22;18882;50.952;4.366;2023-04-15T07:50:23;10.40;99.90
32428;DHT22;18882;50.952;4.366;2023-04-15T07:52:49;10.70;99.90
32428;DHT22;18882;50.952;4.366;2023-04-15T07:55:16;10.80;99.90
32428;DHT22;18882;50.952;4.366;2023-04-15T07:57:44;11.00;99.90
32428;DHT22;18882;50.952;4.366;2023-04-15T08:00:10;11.00;99.90
32428;DHT22;18882;50.952;4.366;2023-04-15T08:02:35;11.00;99.90
32428;DHT22;18882;50.952;4.366;2023-04-15T08:05:02;11.10;99.90
32428;DHT22;18882;50.952;4.366;2023-04-15T08:07:28;11.40;99.90
32428;DHT22;18882;50.952;4.366;2023-04-15T08:09:54;11.40;99.90
32428;DHT22;18882;50.952;4.366;2023-04-15T08:12:20;11.50;99.90
32428;DHT22;18882;50.952;4.366;2023-04-15T08:14:46;11.50;99.90
32428;DHT22;18882;50.952;4.366;2023-04-15T08:17:12;11.50;99.90
32428;DHT22;18882;50.952;4.366;2023-04-15T08:19:39;11.70;99.90
32428;DHT22;18882;50.952;4.366;2023-04-15T08:22:05;12.00;99.90
32428;DHT22;18882;50.952;4.366;2023-04-15T08:24:31;12.00;99.90
32428;DHT22;18882;50.952;4.366;2023-04-15T08:26:56;12.10;99.90
32428;DHT22;18882;50.952;4.366;2023-04-15T08:29:22;12.00;99.90
32428;DHT22;18882;50.952;4.366;2023-04-15T08:31:48;12.10;99.90
32428;DHT22;18882;50.952;4.366;2023-04-15T08:34:14;12.20;99.90
32428;DHT22;18882;50.952;4.366;2023-04-15T08:36:41;12.30;99.90
32428;DHT22;18882;50.952;4.366;2023-04-15T08:39:07;12.30;99.90
32428;DHT22;18882;50.952;4.366;2023-04-15T08:42:03;12.20;99.90
32428;DHT22;18882;50.952;4.366;2023-04-15T08:44:35;12.30;99.90
32428;DHT22;18882;50.952;4.366;2023-04-15T08:47:07;12.20;99.90
32428;DHT22;18882;50.952;4.366;2023-04-15T08:49:35;12.20;99.90
32428;DHT22;18882;50.952;4.366;2023-04-15T08:52:03;12.30;99.90
32428;DHT22;18882;50.952;4.366;2023-04-15T08:54:29;12.50;99.90
32428;DHT22;18882;50.952;4.366;2023-04-15T08:56:57;12.70;99.90
32428;DHT22;18882;50.952;4.366;2023-04-15T08:59:23;12.80;99.90
32428;DHT22;18882;50.952;4.366;2023-04-15T09:01:49;13.00;99.90
32428;DHT22;18882;50.952;4.366;2023-04-15T09:04:18;13.20;99.90
32428;DHT22;18882;50.952;4.366;2023-04-15T09:06:43;13.30;99.90
32428;DHT22;18882;50.952;4.366;2023-04-15T09:09:10;13.50;99.90
32428;DHT22;18882;50.952;4.366;2023-04-15T09:11:37;13.60;99.90
32428;DHT22;18882;50.952;4.366;2023-04-15T09:24:37;14.20;99.90
32428;DHT22;18882;50.952;4.366;2023-04-15T09:37:15;14.40;99.90
32428;DHT22;18882;50.952;4.366;2023-04-15T09:39:50;14.30;99.90
32428;DHT22;18882;50.952;4.366;2023-04-15T09:42:19;14.20;99.90
32428;DHT22;18882;50.952;4.366;2023-04-15T09:45:02;14.20;99.90
32428;DHT22;18882;50.952;4.366;2023-04-15T09:47:32;14.40;99.90
32428;DHT22;18882;50.952;4.366;2023-04-15T09:49:59;14.60;99.90
32428;DHT22;18882;50.952;4.366;2023-04-15T09:52:38;14.50;99.90
32428;DHT22;18882;50.952;4.366;2023-04-15T09:55:06;14.60;99.90
32428;DHT22;18882;50.952;4.366;2023-04-15T09:57:35;14.70;99.90
32428;DHT22;18882;50.952;4.366;2023-04-15T10:00:06;14.80;99.90
32428;DHT22;18882;50.952;4.366;2023-04-15T10:02:33;14.90;99.90
32428;DHT22;18882;50.952;4.366;2023-04-15T10:05:02;15.00;99.90
32428;DHT22;18882;50.952;4.366;2023-04-15T10:07:28;14.80;99.90
32428;DHT22;18882;50.952;4.366;2023-04-15T10:10:31;15.00;99.90
32428;DHT22;18882;50.952;4.366;2023-04-15T10:13:32;15.40;99.90
32428;DHT22;18882;50.952;4.366;2023-04-15T10:25:46;15.00;99.90
32428;DHT22;18882;50.952;4.366;2023-04-15T10:28:16;14.90;99.90
32428;DHT22;18882;50.952;4.366;2023-04-15T10:31:25;15.10;99.90
32428;DHT22;18882;50.952;4.366;2023-04-15T10:34:07;15.70;99.90
32428;DHT22;18882;50.952;4.366;2023-04-15T10:37:00;15.70;99.90
32428;DHT22;18882;50.952;4.366;2023-04-15T10:46:04;15.80;99.90
32428;DHT22;18882;50.952;4.366;2023-04-15T10:48:30;15.80;99.90
32428;DHT22;18882;50.952;4.366;2023-04-15T10:50:57;15.40;99.90
32428;DHT22;18882;50.952;4.366;2023-04-15T10:53:28;15.20;99.90
32428;DHT22;18882;50.952;4.366;2023-04-15T10:55:54;15.20;99.90
32428;DHT22;18882;50.952;4.366;2023-04-15T10:58:48;15.00;99.90
32428;DHT22;18882;50.952;4.366;2023-04-15T11:04:55;15.10;99.90
32428;DHT22;18882;50.952;4.366;2023-04-15T11:07:33;15.00;99.90
32428;DHT22;18882;50.952;4.366;2023-04-15T11:16:04;14.90;99.90
32428;DHT22;18882;50.952;4.366;2023-04-15T11:18:32;14.90;99.90
32428;DHT22;18882;50.952;4.366;2023-04-15T11:21:04;15.10;99.90
32428;DHT22;18882;50.952;4.366;2023-04-15T11:23:36;15.20;99.90
32428;DHT22;18882;50.952;4.366;2023-04-15T11:29:38;15.10;99.90
32428;DHT22;18882;50.952;4.366;2023-04-15T11:32:05;15.10;99.90
32428;DHT22;18882;50.952;4.366;2023-04-15T11:48:40;15.00;99.90
32428;DHT22;18882;50.952;4.366;2023-04-15T11:51:45;15.20;99.90
32428;DHT22;18882;50.952;4.366;2023-04-15T12:04:26;15.40;99.90
32428;DHT22;18882;50.952;4.366;2023-04-15T12:10:16;15.10;99.90
32428;DHT22;18882;50.952;4.366;2023-04-15T12:12:44;15.20;99.90
32428;DHT22;18882;50.952;4.366;2023-04-15T12:19:05;15.30;99.90
32428;DHT22;18882;50.952;4.366;2023-04-15T12:21:36;15.30;99.90
32428;DHT22;18882;50.952;4.366;2023-04-15T12:24:05;15.30;99.90
32428;DHT22;18882;50.952;4.366;2023-04-15T12:26:45;15.20;99.90
32428;DHT22;18882;50.952;4.366;2023-04-15T12:29:12;15.30;99.90
32428;DHT22;18882;50.952;4.366;2023-04-15T12:31:57;15.40;99.90
32428;DHT22;18882;50.952;4.366;2023-04-15T12:34:31;15.50;99.90
32428;DHT22;18882;50.952;4.366;2023-04-15T12:36:59;15.60;99.90
32428;DHT22;18882;50.952;4.366;2023-04-15T12:40:07;15.50;99.90
32428;DHT22;18882;50.952;4.366;2023-04-15T12:52:56;15.80;99.90
32428;DHT22;18882;50.952;4.366;2023-04-15T13:02:40;15.60;99.90
32428;DHT22;18882;50.952;4.366;2023-04-15T13:05:49;15.60;99.90
32428;DHT22;18882;50.952;4.366;2023-04-15T13:18:23;15.60;99.90
32428;DHT22;18882;50.952;4.366;2023-04-15T13:21:05;15.50;99.90
32428;DHT22;18882;50.952;4.366;2023-04-15T13:27:06;15.80;99.90
32428;DHT22;18882;50.952;4.366;2023-04-15T13:29:32;15.70;99.90
32428;DHT22;18882;50.952;4.366;2023-04-15T13:32:01;15.50;99.90
32428;DHT22;18882;50.952;4.366;2023-04-15T13:34:28;15.70;99.90
32428;DHT22;18882;50.952;4.366;2023-04-15T13:36:55;15.70;99.90
32428;DHT22;18882;50.952;4.366;2023-04-15T13:39:21;15.70;99.90
32428;DHT22;18882;50.952;4.366;2023-04-15T13:41:46;15.70;99.90
32428;DHT22;18882;50.952;4.366;2023-04-15T13:44:12;15.80;99.90
32428;DHT22;18882;50.952;4.366;2023-04-15T13:46:50;15.60;99.90
32428;DHT22;18882;50.952;4.366;2023-04-15T13:59:51;15.70;99.90
32428;DHT22;18882;50.952;4.366;2023-04-15T14:02:17;15.30;99.90
32428;DHT22;18882;50.952;4.366;2023-04-15T14:08:35;15.60;99.90
32428;DHT22;18882;50.952;4.366;2023-04-15T14:11:01;15.90;99.90
32428;DHT22;18882;50.952;4.366;2023-04-15T14:13:26;15.80;99.90
32428;DHT22;18882;50.952;4.366;2023-04-15T14:15:52;15.90;99.90
32428;DHT22;18882;50.952;4.366;2023-04-15T14:18:18;15.80;99.90
32428;DHT22;18882;50.952;4.366;2023-04-15T14:20:43;15.40;99.90
32428;DHT22;18882;50.952;4.366;2023-04-15T14:27:24;15.60;99.90
32428;DHT22;18882;50.952;4.366;2023-04-15T14:40:37;15.50;99.90
32428;DHT22;18882;50.952;4.366;2023-04-15T14:43:03;15.60;99.90
32428;DHT22;18882;50.952;4.366;2023-04-15T14:45:32;15.50;99.90
32428;DHT22;18882;50.952;4.366;2023-04-15T14:51:54;15.20;99.90
32428;DHT22;18882;50.952;4.366;2023-04-15T14:54:25;15.00;99.90
32428;DHT22;18882;50.952;4.366;2023-04-15T14:57:03;15.20;99.90
32428;DHT22;18882;50.952;4.366;2023-04-15T15:13:52;15.50;99.90
32428;DHT22;18882;50.952;4.366;2023-04-15T15:34:35;15.10;99.90
32428;DHT22;18882;50.952;4.366;2023-04-15T15:37:30;14.70;99.90
32428;DHT22;18882;50.952;4.366;2023-04-15T15:40:03;14.50;99.90
32428;DHT22;18882;50.952;4.366;2023-04-15T15:42:32;14.50;99.90
32428;DHT22;18882;50.952;4.366;2023-04-15T15:44:58;14.40;99.90
32428;DHT22;18882;50.952;4.366;2023-04-15T15:47:24;14.50;99.90
32428;DHT22;18882;50.952;4.366;2023-04-15T15:49:55;14.40;99.90
32428;DHT22;18882;50.952;4.366;2023-04-15T15:52:32;14.30;99.90
32428;DHT22;18882;50.952;4.366;2023-04-15T15:55:00;14.30;99.90
32428;DHT22;18882;50.952;4.366;2023-04-15T15:57:26;14.30;99.90
32428;DHT22;18882;50.952;4.366;2023-04-15T15:59:55;14.20;99.90
32428;DHT22;18882;50.952;4.366;2023-04-15T16:02:20;13.90;99.90
32428;DHT22;18882;50.952;4.366;2023-04-15T16:04:46;13.90;99.90
32428;DHT22;18882;50.952;4.366;2023-04-15T16:07:15;14.00;99.90
32428;DHT22;18882;50.952;4.366;2023-04-15T16:09:41;14.10;99.90
32428;DHT22;18882;50.952;4.366;2023-04-15T16:19:15;14.00;99.90
32428;DHT22;18882;50.952;4.366;2023-04-15T16:21:41;14.20;99.90
32428;DHT22;18882;50.952;4.366;2023-04-15T16:24:07;14.30;99.90
32428;DHT22;18882;50.952;4.366;2023-04-15T16:26:32;14.40;99.90
32428;DHT22;18882;50.952;4.366;2023-04-15T16:28:58;14.50;99.90
32428;DHT22;18882;50.952;4.366;2023-04-15T16:31:24;14.40;99.90
32428;DHT22;18882;50.952;4.366;2023-04-15T16:33:50;14.30;99.90
32428;DHT22;18882;50.952;4.366;2023-04-15T16:36:16;14.40;99.90
32428;DHT22;18882;50.952;4.366;2023-04-15T16:38:41;14.40;99.90
32428;DHT22;18882;50.952;4.366;2023-04-15T16:41:09;14.40;99.90
32428;DHT22;18882;50.952;4.366;2023-04-15T16:43:35;14.30;99.90
32428;DHT22;18882;50.952;4.366;2023-04-15T16:46:31;14.30;99.90
32428;DHT22;18882;50.952;4.366;2023-04-15T16:49:15;14.30;99.90
32428;DHT22;18882;50.952;4.366;2023-04-15T16:51:41;14.10;99.90
32428;DHT22;18882;50.952;4.366;2023-04-15T16:54:07;14.10;99.90
32428;DHT22;18882;50.952;4.366;2023-04-15T16:59:52;13.90;99.90
32428;DHT22;18882;50.952;4.366;2023-04-15T17:02:18;13.90;99.90
32428;DHT22;18882;50.952;4.366;2023-04-15T17:04:44;13.60;99.90
32428;DHT22;18882;50.952;4.366;2023-04-15T17:07:09;13.60;99.90
32428;DHT22;18882;50.952;4.366;2023-04-15T17:09:37;13.30;99.90
32428;DHT22;18882;50.952;4.366;2023-04-15T17:12:03;13.30;99.90
32428;DHT22;18882;50.952;4.366;2023-04-15T17:14:37;13.40;99.90
32428;DHT22;18882;50.952;4.366;2023-04-15T17:17:05;13.40;99.90
32428;DHT22;18882;50.952;4.366;2023-04-15T17:19:31;13.30;99.90
32428;DHT22;18882;50.952;4.366;2023-04-15T17:22:32;13.30;99.90
32428;DHT22;18882;50.952;4.366;2023-04-15T17:25:01;13.10;99.90
32428;DHT22;18882;50.952;4.366;2023-04-15T17:27:29;12.90;99.90
32428;DHT22;18882;50.952;4.366;2023-04-15T17:29:55;12.80;99.90
32428;DHT22;18882;50.952;4.366;2023-04-15T17:32:22;12.80;99.90
32428;DHT22;18882;50.952;4.366;2023-04-15T17:34:48;12.70;99.90
32428;DHT22;18882;50.952;4.366;2023-04-15T17:37:20;12.60;99.90
32428;DHT22;18882;50.952;4.366;2023-04-15T17:39:45;12.60;99.90
32428;DHT22;18882;50.952;4.366;2023-04-15T17:42:14;12.40;99.90
32428;DHT22;18882;50.952;4.366;2023-04-15T17:45:04;12.30;99.90
32428;DHT22;18882;50.952;4.366;2023-04-15T17:48:26;12.20;99.90
32428;DHT22;18882;50.952;4.366;2023-04-15T18:01:28;12.00;99.90
32428;DHT22;18882;50.952;4.366;2023-04-15T18:06:54;11.90;99.90
32428;DHT22;18882;50.952;4.366;2023-04-15T18:09:40;11.80;99.90
32428;DHT22;18882;50.952;4.366;2023-04-15T18:12:23;11.60;99.90
32428;DHT22;18882;50.952;4.366;2023-04-15T18:15:08;11.60;99.90
32428;DHT22;18882;50.952;4.366;2023-04-15T18:17:43;11.60;99.90
32428;DHT22;18882;50.952;4.366;2023-04-15T18:20:09;11.40;99.90
32428;DHT22;18882;50.952;4.366;2023-04-15T18:22:56;11.30;99.90
32428;DHT22;18882;50.952;4.366;2023-04-15T18:28:27;11.10;99.90
32428;DHT22;18882;50.952;4.366;2023-04-15T18:30:53;11.10;99.90
32428;DHT22;18882;50.952;4.366;2023-04-15T18:33:19;10.90;99.90
32428;DHT22;18882;50.952;4.366;2023-04-15T18:35:45;11.00;99.90
32428;DHT22;18882;50.952;4.366;2023-04-15T18:38:10;10.90;99.90
32428;DHT22;18882;50.952;4.366;2023-04-15T18:40:36;10.90;99.90
32428;DHT22;18882;50.952;4.366;2023-04-15T18:43:02;10.80;99.90
32428;DHT22;18882;50.952;4.366;2023-04-15T18:45:29;10.70;99.90
32428;DHT22;18882;50.952;4.366;2023-04-15T18:47:55;10.60;99.90
32428;DHT22;18882;50.952;4.366;2023-04-15T18:50:20;10.60;99.90
32428;DHT22;18882;50.952;4.366;2023-04-15T18:52:46;10.60;99.90
32428;DHT22;18882;50.952;4.366;2023-04-15T18:55:12;10.30;99.90
32428;DHT22;18882;50.952;4.366;2023-04-15T18:57:37;10.20;99.90
32428;DHT22;18882;50.952;4.366;2023-04-15T19:00:08;10.10;99.90
32428;DHT22;18882;50.952;4.366;2023-04-15T19:02:37;10.00;99.90
32428;DHT22;18882;50.952;4.366;2023-04-15T19:05:09;10.00;99.90
32428;DHT22;18882;50.952;4.366;2023-04-15T19:07:35;9.80;99.90
32428;DHT22;18882;50.952;4.366;2023-04-15T19:10:02;9.70;99.90
32428;DHT22;18882;50.952;4.366;2023-04-15T19:12:28;9.70;99.90